createdAt,value
2018-03-31T00:00:39.142Z,930.93
2018-03-31T00:01:39.150Z,930.98
2018-03-31T00:02:39.152Z,930.98
2018-03-31T00:03:39.122Z,931.10
2018-03-31T00:04:39.110Z,931.03
2018-03-31T00:05:39.093Z,931.00
2018-03-31T00:06:39.091Z,931.01
2018-03-31T00:07:39.083Z,930.99
2018-03-31T00:08:39.071Z,930.89
2018-03-31T00:09:39.068Z,930.91
2018-03-31T00:10:39.055Z,930.92
2018-03-31T00:11:39.047Z,930.93
2018-03-31T00:12:39.051Z,930.96
2018-03-31T00:13:39.020Z,930.85
2018-03-31T00:14:39.008Z,930.83
2018-03-31T00:15:38.999Z,930.83
2018-03-31T00:16:39.007Z,930.94
2018-03-31T00:17:38.979Z,930.90
2018-03-31T00:18:38.967Z,930.96
2018-03-31T00:19:38.962Z,930.95
2018-03-31T00:20:38.952Z,930.97
2018-03-31T00:21:38.946Z,931.01
2018-03-31T00:22:38.931Z,931.01
2018-03-31T00:23:38.919Z,930.99
2018-03-31T00:24:38.913Z,930.97
2018-03-31T00:25:38.913Z,930.99
2018-03-31T00:26:38.915Z,931.01
2018-03-31T00:27:38.884Z,930.96
2018-03-31T00:28:38.881Z,930.95
2018-03-31T00:29:39.820Z,930.98
2018-03-31T00:30:38.873Z,930.94
2018-03-31T00:31:38.903Z,931.01
2018-03-31T00:32:38.884Z,931.00
2018-03-31T00:33:38.864Z,930.98
2018-03-31T00:34:38.880Z,930.97
2018-03-31T00:35:38.866Z,930.94
2018-03-31T00:36:38.871Z,930.95
2018-03-31T00:37:38.852Z,930.93
2018-03-31T00:38:38.817Z,930.89
2018-03-31T00:39:38.814Z,930.88
2018-03-31T00:40:38.786Z,930.90
2018-03-31T00:41:38.834Z,930.88
2018-03-31T00:42:38.817Z,930.88
2018-03-31T00:43:38.828Z,930.85
2018-03-31T00:44:38.837Z,930.90
2018-03-31T00:45:38.819Z,930.90
2018-03-31T00:46:38.848Z,930.86
2018-03-31T00:47:38.855Z,930.87
2018-03-31T00:48:38.763Z,930.86
2018-03-31T00:49:38.860Z,930.85
2018-03-31T00:50:38.688Z,930.87
2018-03-31T00:51:38.699Z,930.86
2018-03-31T00:52:38.681Z,930.86
2018-03-31T00:53:38.703Z,930.89
2018-03-31T00:54:38.653Z,930.85
2018-03-31T00:55:38.627Z,930.82
2018-03-31T00:56:38.625Z,930.87
2018-03-31T00:57:38.644Z,930.86
2018-03-31T00:58:38.618Z,930.86
2018-03-31T00:59:38.599Z,930.81
2018-03-31T01:00:38.593Z,930.86
2018-03-31T01:01:38.593Z,930.90
2018-03-31T01:02:38.583Z,930.93
2018-03-31T01:03:38.575Z,930.93
2018-03-31T01:04:38.569Z,930.98
2018-03-31T01:05:38.577Z,930.92
2018-03-31T01:06:38.550Z,930.95
2018-03-31T01:07:38.498Z,930.96
2018-03-31T01:08:38.512Z,930.94
2018-03-31T01:09:38.496Z,930.88
2018-03-31T01:10:38.523Z,930.93
2018-03-31T01:11:38.501Z,930.98
2018-03-31T01:12:38.498Z,931.04
2018-03-31T01:13:38.494Z,931.04
2018-03-31T01:14:38.445Z,931.03
2018-03-31T01:15:38.435Z,930.97
2018-03-31T01:16:38.454Z,930.90
2018-03-31T01:17:38.440Z,930.93
2018-03-31T01:18:38.435Z,930.91
2018-03-31T01:19:38.432Z,930.83
2018-03-31T01:20:38.457Z,930.81
2018-03-31T01:21:38.375Z,930.82
2018-03-31T01:22:38.407Z,930.79
2018-03-31T01:23:38.412Z,930.78
2018-03-31T01:24:38.410Z,930.76
2018-03-31T01:25:38.368Z,930.73
2018-03-31T01:26:38.370Z,930.72
2018-03-31T01:27:38.355Z,930.73
2018-03-31T01:28:38.310Z,930.69
2018-03-31T01:29:38.313Z,930.72
2018-03-31T01:30:38.330Z,930.67
2018-03-31T02:02:49.102Z,930.21
2018-03-31T02:03:49.066Z,930.22
2018-03-31T02:04:49.061Z,930.17
2018-03-31T02:05:49.024Z,930.21
2018-03-31T02:06:49.018Z,930.15
2018-03-31T02:07:48.996Z,930.18
2018-03-31T02:08:48.978Z,930.21
2018-03-31T02:09:48.965Z,930.20
2018-03-31T02:10:48.959Z,930.25
2018-03-31T02:11:48.941Z,930.26
2018-03-31T02:12:48.938Z,930.25
2018-03-31T02:13:49.003Z,930.27
2018-03-31T02:14:48.918Z,930.33
2018-03-31T02:15:48.906Z,930.35
2018-03-31T02:16:48.890Z,930.34
2018-03-31T02:17:48.883Z,930.31
2018-03-31T02:18:48.882Z,930.25
2018-03-31T02:19:48.867Z,930.23
2018-03-31T02:20:48.846Z,930.17
2018-03-31T02:21:48.889Z,930.12
2018-03-31T02:22:48.824Z,930.15
2018-03-31T02:23:48.823Z,930.10
2018-03-31T02:24:48.809Z,930.13
2018-03-31T02:25:48.800Z,930.16
2018-03-31T02:26:48.786Z,930.15
2018-03-31T02:27:48.797Z,930.14
2018-03-31T02:28:48.756Z,930.15
2018-03-31T02:29:48.763Z,930.19
2018-03-31T02:30:48.750Z,930.14
2018-03-31T02:31:48.748Z,930.22
2018-03-31T02:32:48.724Z,930.19
2018-03-31T02:33:48.717Z,930.13
2018-03-31T02:34:48.700Z,930.14
2018-03-31T02:35:48.699Z,930.14
2018-03-31T02:36:48.683Z,930.16
2018-03-31T02:37:48.668Z,930.17
2018-03-31T02:38:48.671Z,930.16
2018-03-31T02:39:48.663Z,930.16
2018-03-31T02:40:48.654Z,930.20
2018-03-31T02:41:48.641Z,930.14
2018-03-31T02:42:48.629Z,930.13
2018-03-31T02:43:48.648Z,930.13
2018-03-31T02:44:48.625Z,930.09
2018-03-31T02:45:48.603Z,929.97
2018-03-31T02:46:48.595Z,929.99
2018-03-31T02:47:48.581Z,930.00
2018-03-31T02:48:48.577Z,929.96
2018-03-31T02:49:48.560Z,929.99
2018-03-31T02:50:48.555Z,929.96
2018-03-31T02:51:48.541Z,929.93
2018-03-31T02:52:48.542Z,929.94
2018-03-31T02:53:48.575Z,929.88
2018-03-31T02:54:48.514Z,929.89
2018-03-31T02:55:48.509Z,929.92
2018-03-31T02:56:48.504Z,929.89
2018-03-31T02:57:48.494Z,929.88
2018-03-31T02:58:48.480Z,929.94
2018-03-31T02:59:48.466Z,929.91
2018-03-31T03:00:48.467Z,929.94
2018-03-31T03:01:48.549Z,929.97
2018-03-31T03:02:48.451Z,929.94
2018-03-31T03:03:48.440Z,929.91
2018-03-31T03:04:48.516Z,929.91
2018-03-31T03:05:48.504Z,929.94
2018-03-31T03:06:48.410Z,929.97
2018-03-31T03:07:48.392Z,929.93
2018-03-31T03:08:48.398Z,929.89
2018-03-31T03:09:48.375Z,929.92
2018-03-31T03:10:48.385Z,929.90
2018-03-31T03:11:48.359Z,929.89
2018-03-31T03:12:48.349Z,929.91
2018-03-31T03:13:48.335Z,929.96
2018-03-31T03:14:48.326Z,929.91
2018-03-31T03:15:48.325Z,929.93
2018-03-31T03:16:48.393Z,929.93
2018-03-31T03:17:48.311Z,929.89
2018-03-31T03:18:48.397Z,929.92
2018-03-31T03:19:48.281Z,929.86
2018-03-31T03:20:48.282Z,929.83
2018-03-31T03:21:48.264Z,929.83
2018-03-31T03:22:48.252Z,929.84
2018-03-31T03:23:48.252Z,929.88
2018-03-31T03:24:48.234Z,929.91
2018-03-31T03:25:48.226Z,929.94
2018-03-31T03:26:48.234Z,929.98
2018-03-31T03:27:48.209Z,929.93
2018-03-31T03:28:48.201Z,929.93
2018-03-31T03:29:48.186Z,929.85
2018-03-31T03:30:48.177Z,929.84
2018-03-31T03:31:48.232Z,929.85
2018-03-31T03:32:48.157Z,929.81
2018-03-31T03:33:48.190Z,929.88
2018-03-31T03:34:48.145Z,929.93
2018-03-31T03:35:48.139Z,929.92
2018-03-31T03:36:48.135Z,929.91
2018-03-31T03:37:48.113Z,929.92
2018-03-31T03:38:48.111Z,929.86
2018-03-31T03:39:48.098Z,929.87
2018-03-31T03:40:48.090Z,929.83
2018-03-31T03:41:48.081Z,929.86
2018-03-31T03:42:48.072Z,929.88
2018-03-31T03:43:48.060Z,929.85
2018-03-31T03:44:48.058Z,929.87
2018-03-31T03:45:48.038Z,929.86
2018-03-31T03:46:48.073Z,929.83
2018-03-31T03:47:48.013Z,929.77
2018-03-31T03:48:48.009Z,929.77
2018-03-31T03:49:47.999Z,929.75
2018-03-31T03:50:47.994Z,929.81
2018-03-31T03:51:47.988Z,929.78
2018-03-31T03:52:47.974Z,929.78
2018-03-31T03:53:47.964Z,929.79
2018-03-31T03:54:48.077Z,929.76
2018-03-31T03:55:47.951Z,929.74
2018-03-31T03:56:48.086Z,929.70
2018-03-31T03:57:47.934Z,929.71
2018-03-31T03:58:47.919Z,929.73
2018-03-31T03:59:47.919Z,929.72
2018-03-31T04:00:47.906Z,929.71
2018-03-31T04:01:47.918Z,929.79
2018-03-31T04:02:47.924Z,929.75
2018-03-31T04:03:47.881Z,929.75
2018-03-31T04:04:47.859Z,929.70
2018-03-31T04:05:47.856Z,929.74
2018-03-31T04:06:47.846Z,929.73
2018-03-31T04:07:47.839Z,929.77
2018-03-31T04:08:47.819Z,929.78
2018-03-31T04:09:47.815Z,929.79
2018-03-31T04:10:47.817Z,929.76
2018-03-31T04:11:47.803Z,929.80
2018-03-31T04:12:47.791Z,929.76
2018-03-31T04:13:47.781Z,929.73
2018-03-31T04:14:47.775Z,929.70
2018-03-31T04:15:47.764Z,929.69
2018-03-31T04:16:47.818Z,929.70
2018-03-31T04:17:47.749Z,929.70
2018-03-31T04:18:47.750Z,929.70
2018-03-31T04:19:47.721Z,929.70
2018-03-31T04:20:47.712Z,929.71
2018-03-31T04:21:47.706Z,929.71
2018-03-31T04:22:47.694Z,929.69
2018-03-31T04:23:47.687Z,929.70
2018-03-31T04:24:47.707Z,929.66
2018-03-31T04:25:47.667Z,929.68
2018-03-31T04:26:47.659Z,929.71
2018-03-31T04:27:47.660Z,929.69
2018-03-31T04:28:47.635Z,929.70
2018-03-31T04:29:47.630Z,929.68
2018-03-31T04:30:47.623Z,929.71
2018-03-31T04:31:47.629Z,929.66
2018-03-31T04:32:47.613Z,929.67
2018-03-31T04:33:47.589Z,929.63
2018-03-31T04:34:47.584Z,929.62
2018-03-31T04:35:47.580Z,929.63
2018-03-31T04:36:47.569Z,929.59
2018-03-31T04:37:47.553Z,929.59
2018-03-31T04:38:47.561Z,929.60
2018-03-31T04:39:47.542Z,929.67
2018-03-31T04:40:47.536Z,929.69
2018-03-31T04:41:47.525Z,929.73
2018-03-31T04:42:47.507Z,929.75
2018-03-31T04:43:47.502Z,929.76
2018-03-31T04:44:47.592Z,929.77
2018-03-31T04:45:47.488Z,929.78
2018-03-31T04:46:47.480Z,929.74
2018-03-31T04:47:47.464Z,929.78
2018-03-31T04:48:47.463Z,929.78
2018-03-31T04:49:47.442Z,929.74
2018-03-31T04:50:47.440Z,929.73
2018-03-31T04:51:47.432Z,929.72
2018-03-31T04:52:47.423Z,929.75
2018-03-31T04:53:47.417Z,929.77
2018-03-31T04:54:47.447Z,929.75
2018-03-31T04:55:47.393Z,929.80
2018-03-31T04:56:47.388Z,929.74
2018-03-31T04:57:47.375Z,929.74
2018-03-31T04:58:47.365Z,929.75
2018-03-31T04:59:47.356Z,929.75
2018-03-31T05:00:47.342Z,929.73
2018-03-31T05:01:47.384Z,929.75
2018-03-31T05:02:47.322Z,929.79
2018-03-31T05:03:47.337Z,929.74
2018-03-31T05:04:47.314Z,929.74
2018-03-31T05:05:47.305Z,929.74
2018-03-31T05:06:47.292Z,929.76
2018-03-31T05:07:47.283Z,929.73
2018-03-31T05:08:47.284Z,929.74
2018-03-31T05:09:47.274Z,929.76
2018-03-31T05:10:47.262Z,929.80
2018-03-31T05:11:47.248Z,929.76
2018-03-31T05:12:47.236Z,929.80
2018-03-31T05:13:47.218Z,929.79
2018-03-31T05:14:47.263Z,929.77
2018-03-31T05:15:47.209Z,929.83
2018-03-31T05:16:47.244Z,929.75
2018-03-31T05:17:47.206Z,929.81
2018-03-31T05:18:47.244Z,929.83
2018-03-31T05:19:47.198Z,929.81
2018-03-31T05:20:47.215Z,929.81
2018-03-31T05:21:47.208Z,929.78
2018-03-31T05:22:47.172Z,929.78
2018-03-31T05:23:48.040Z,929.79
2018-03-31T05:24:47.187Z,929.79
2018-03-31T05:25:47.182Z,929.83
2018-03-31T05:26:47.138Z,929.84
2018-03-31T05:27:47.148Z,929.85
2018-03-31T05:28:47.105Z,929.84
2018-03-31T05:29:47.105Z,929.82
2018-03-31T05:30:47.123Z,929.85
2018-03-31T05:31:47.130Z,929.84
2018-03-31T05:32:47.074Z,929.81
2018-03-31T05:33:47.087Z,929.83
2018-03-31T05:34:47.087Z,929.85
2018-03-31T05:35:47.083Z,929.88
2018-03-31T05:36:47.087Z,929.88
2018-03-31T05:37:47.097Z,929.85
2018-03-31T05:38:47.095Z,929.87
2018-03-31T05:39:47.078Z,929.87
2018-03-31T05:40:47.033Z,929.92
2018-03-31T05:41:47.078Z,929.88
2018-03-31T05:42:47.020Z,929.91
2018-03-31T05:43:47.671Z,929.91
2018-03-31T05:44:47.671Z,929.87
2018-03-31T05:45:47.010Z,929.86
2018-03-31T05:46:47.011Z,929.86
2018-03-31T05:47:47.009Z,929.86
2018-03-31T05:48:47.000Z,929.88
2018-03-31T05:49:47.009Z,929.91
2018-03-31T05:50:47.017Z,929.87
2018-03-31T05:51:46.953Z,929.85
2018-03-31T05:52:46.907Z,929.85
2018-03-31T05:53:46.979Z,929.84
2018-03-31T05:54:46.899Z,929.81
2018-03-31T05:55:47.690Z,929.80
2018-03-31T05:56:47.649Z,929.73
2018-03-31T05:57:47.666Z,929.75
2018-03-31T05:58:46.943Z,929.73
2018-03-31T05:59:46.936Z,929.70
2018-03-31T06:00:46.920Z,929.70
2018-03-31T06:01:46.915Z,929.67
2018-03-31T06:02:46.886Z,929.73
2018-03-31T06:03:46.867Z,929.72
2018-03-31T06:04:46.930Z,929.73
2018-03-31T06:05:46.884Z,929.71
2018-03-31T06:06:46.789Z,929.71
2018-03-31T06:07:46.799Z,929.70
2018-03-31T06:08:46.795Z,929.72
2018-03-31T06:09:47.683Z,929.72
2018-03-31T06:10:47.686Z,929.71
2018-03-31T06:11:46.784Z,929.75
2018-03-31T06:12:46.779Z,929.75
2018-03-31T06:13:46.753Z,929.72
2018-03-31T06:14:46.761Z,929.79
2018-03-31T06:15:46.768Z,929.73
2018-03-31T06:16:46.751Z,929.71
2018-03-31T06:17:47.547Z,929.77
2018-03-31T06:18:46.691Z,929.73
2018-03-31T06:19:46.674Z,929.76
2018-03-31T06:20:46.830Z,929.75
2018-03-31T06:21:46.693Z,929.72
2018-03-31T06:22:46.665Z,929.74
2018-03-31T06:23:46.668Z,929.70
2018-03-31T06:24:47.172Z,929.72
2018-03-31T06:25:48.055Z,929.69
2018-03-31T06:26:46.665Z,929.74
2018-03-31T06:27:46.681Z,929.74
2018-03-31T06:28:46.664Z,929.73
2018-03-31T06:29:46.693Z,929.69
2018-03-31T06:30:46.639Z,929.70
2018-03-31T06:31:46.592Z,929.71
2018-03-31T06:32:46.717Z,929.64
2018-03-31T06:33:46.565Z,929.68
2018-03-31T06:34:46.673Z,929.65
2018-03-31T06:35:46.563Z,929.68
2018-03-31T06:36:46.679Z,929.67
2018-03-31T06:37:47.178Z,929.66
2018-03-31T06:38:46.596Z,929.70
2018-03-31T06:39:47.163Z,929.70
2018-03-31T06:40:46.553Z,929.68
2018-03-31T06:41:46.561Z,929.67
2018-03-31T06:42:46.566Z,929.67
2018-03-31T06:43:46.560Z,929.68
2018-03-31T06:44:47.134Z,929.64
2018-03-31T06:45:47.161Z,929.67
2018-03-31T06:46:46.577Z,929.60
2018-03-31T06:47:47.160Z,929.64
2018-03-31T06:48:47.210Z,929.64
2018-03-31T06:49:46.585Z,929.65
2018-03-31T06:50:46.464Z,929.63
2018-03-31T06:51:46.461Z,929.67
2018-03-31T06:52:46.476Z,929.70
2018-03-31T06:53:46.423Z,929.70
2018-03-31T06:54:46.482Z,929.69
2018-03-31T06:55:46.488Z,929.65
2018-03-31T06:56:46.451Z,929.68
2018-03-31T06:57:46.426Z,929.64
2018-03-31T06:58:46.406Z,929.62
2018-03-31T06:59:46.483Z,929.66
2018-03-31T07:00:46.451Z,929.63
2018-03-31T07:01:46.460Z,929.66
2018-03-31T07:02:46.451Z,929.63
2018-03-31T07:03:46.479Z,929.61
2018-03-31T07:04:46.461Z,929.64
2018-03-31T07:05:46.492Z,929.65
2018-03-31T07:06:46.471Z,929.63
2018-03-31T07:07:46.332Z,929.63
2018-03-31T07:08:46.329Z,929.63
2018-03-31T07:09:46.326Z,929.65
2018-03-31T07:10:46.347Z,929.67
2018-03-31T07:11:46.358Z,929.62
2018-03-31T07:12:46.305Z,929.59
2018-03-31T07:13:46.305Z,929.60
2018-03-31T07:14:46.311Z,929.61
2018-03-31T07:15:46.310Z,929.55
2018-03-31T07:16:46.308Z,929.59
2018-03-31T07:17:46.258Z,929.56
2018-03-31T07:18:46.251Z,929.54
2018-03-31T07:19:46.249Z,929.56
2018-03-31T07:20:46.238Z,929.56
2018-03-31T07:21:46.260Z,929.57
2018-03-31T07:22:46.228Z,929.59
2018-03-31T07:23:46.222Z,929.57
2018-03-31T07:24:46.206Z,929.57
2018-03-31T07:25:46.209Z,929.55
2018-03-31T07:26:46.209Z,929.54
2018-03-31T07:27:46.201Z,929.54
2018-03-31T07:28:46.195Z,929.53
2018-03-31T07:29:46.192Z,929.53
2018-03-31T07:30:46.176Z,929.54
2018-03-31T07:31:46.170Z,929.58
2018-03-31T07:32:46.174Z,929.54
2018-03-31T07:33:46.158Z,929.56
2018-03-31T07:34:46.165Z,929.54
2018-03-31T07:35:46.150Z,929.57
2018-03-31T07:36:46.154Z,929.60
2018-03-31T07:37:46.145Z,929.60
2018-03-31T07:38:46.156Z,929.61
2018-03-31T07:39:46.178Z,929.67
2018-03-31T07:40:46.184Z,929.67
2018-03-31T07:41:46.136Z,929.65
2018-03-31T07:42:46.129Z,929.68
2018-03-31T07:43:46.127Z,929.65
2018-03-31T07:44:46.143Z,929.68
2018-03-31T07:45:46.105Z,929.67
2018-03-31T07:46:46.105Z,929.67
2018-03-31T07:47:46.092Z,929.65
2018-03-31T07:48:46.137Z,929.71
2018-03-31T07:49:46.088Z,929.71
2018-03-31T07:50:46.091Z,929.69
2018-03-31T07:51:46.066Z,929.70
2018-03-31T07:52:46.071Z,929.72
2018-03-31T07:53:46.052Z,929.72
2018-03-31T07:54:46.140Z,929.71
2018-03-31T07:55:46.059Z,929.75
2018-03-31T07:56:46.039Z,929.75
2018-03-31T07:57:46.029Z,929.76
2018-03-31T07:58:46.043Z,929.74
2018-03-31T07:59:46.018Z,929.75
2018-03-31T08:00:46.020Z,929.72
2018-03-31T08:01:48.699Z,929.71
2018-03-31T08:02:46.005Z,929.70
2018-03-31T08:03:46.001Z,929.67
2018-03-31T08:04:45.975Z,929.65
2018-03-31T08:05:46.005Z,929.65
2018-03-31T08:06:45.984Z,929.64
2018-03-31T08:07:45.973Z,929.59
2018-03-31T08:08:45.962Z,929.60
2018-03-31T08:09:45.961Z,929.64
2018-03-31T08:10:45.964Z,929.61
2018-03-31T08:11:45.955Z,929.60
2018-03-31T08:12:45.948Z,929.59
2018-03-31T08:13:45.933Z,929.57
2018-03-31T08:14:45.934Z,929.62
2018-03-31T08:15:45.932Z,929.57
2018-03-31T08:16:45.934Z,929.56
2018-03-31T08:17:45.927Z,929.59
2018-03-31T08:18:45.957Z,929.57
2018-03-31T08:19:45.918Z,929.56
2018-03-31T08:20:45.914Z,929.56
2018-03-31T08:21:45.906Z,929.56
2018-03-31T08:22:45.906Z,929.56
2018-03-31T08:23:45.890Z,929.55
2018-03-31T08:24:45.975Z,929.59
2018-03-31T08:25:45.866Z,929.58
2018-03-31T08:26:45.864Z,929.57
2018-03-31T08:27:45.872Z,929.62
2018-03-31T08:28:45.848Z,929.63
2018-03-31T08:29:45.847Z,929.65
2018-03-31T08:30:45.851Z,929.65
2018-03-31T08:31:45.998Z,929.62
2018-03-31T08:32:45.847Z,929.65
2018-03-31T08:33:45.842Z,929.63
2018-03-31T08:34:45.837Z,929.62
2018-03-31T08:35:45.845Z,929.63
2018-03-31T08:36:45.883Z,929.61
2018-03-31T08:37:45.835Z,929.58
2018-03-31T08:38:45.850Z,929.62
2018-03-31T08:39:45.847Z,929.57
2018-03-31T08:40:45.838Z,929.56
2018-03-31T08:41:45.920Z,929.57
2018-03-31T08:42:45.810Z,929.58
2018-03-31T08:43:45.880Z,929.56
2018-03-31T08:44:45.800Z,929.59
2018-03-31T08:45:45.882Z,929.58
2018-03-31T08:46:45.777Z,929.56
2018-03-31T08:47:45.794Z,929.58
2018-03-31T08:48:45.761Z,929.59
2018-03-31T08:49:45.761Z,929.59
2018-03-31T08:50:45.746Z,929.65
2018-03-31T08:51:45.800Z,929.60
2018-03-31T08:52:45.764Z,929.68
2018-03-31T08:53:45.763Z,929.67
2018-03-31T08:54:45.759Z,929.70
2018-03-31T08:55:45.726Z,929.70
2018-03-31T08:56:45.733Z,929.72
2018-03-31T08:57:45.724Z,929.71
2018-03-31T08:58:45.709Z,929.70
2018-03-31T08:59:45.711Z,929.66
2018-03-31T09:00:46.178Z,929.70
2018-03-31T09:01:45.732Z,929.66
2018-03-31T09:02:45.690Z,929.68
2018-03-31T09:03:45.690Z,929.68
2018-03-31T09:04:45.685Z,929.69
2018-03-31T09:05:45.679Z,929.65
2018-03-31T09:06:45.720Z,929.68
2018-03-31T09:07:45.672Z,929.75
2018-03-31T09:08:45.657Z,929.68
2018-03-31T09:09:45.660Z,929.67
2018-03-31T09:10:45.645Z,929.65
2018-03-31T09:11:45.735Z,929.70
2018-03-31T09:12:45.640Z,929.70
2018-03-31T09:13:45.640Z,929.67
2018-03-31T09:14:45.629Z,929.74
2018-03-31T09:15:45.622Z,929.72
2018-03-31T09:16:45.656Z,929.69
2018-03-31T09:17:45.654Z,929.71
2018-03-31T09:18:45.634Z,929.72
2018-03-31T09:19:45.696Z,929.71
2018-03-31T09:20:45.616Z,929.73
2018-03-31T09:21:45.601Z,929.71
2018-03-31T09:22:45.783Z,929.71
2018-03-31T09:23:45.600Z,929.75
2018-03-31T09:24:45.585Z,929.73
2018-03-31T09:25:46.005Z,929.71
2018-03-31T09:26:45.581Z,929.74
2018-03-31T09:27:45.575Z,929.74
2018-03-31T09:28:45.571Z,929.75
2018-03-31T09:29:45.584Z,929.78
2018-03-31T09:30:45.577Z,929.78
2018-03-31T09:31:45.599Z,929.76
2018-03-31T09:32:45.547Z,929.75
2018-03-31T09:33:45.550Z,929.79
2018-03-31T09:34:45.548Z,929.79
2018-03-31T09:35:45.551Z,929.76
2018-03-31T09:36:45.538Z,929.80
2018-03-31T09:37:45.536Z,929.81
2018-03-31T09:38:45.529Z,929.75
2018-03-31T09:39:45.525Z,929.73
2018-03-31T09:40:45.525Z,929.74
2018-03-31T09:41:45.520Z,929.72
2018-03-31T09:42:45.524Z,929.71
2018-03-31T09:43:45.514Z,929.69
2018-03-31T09:44:45.494Z,929.68
2018-03-31T09:45:45.506Z,929.70
2018-03-31T09:46:45.559Z,929.67
2018-03-31T09:47:45.492Z,929.65
2018-03-31T09:48:45.509Z,929.58
2018-03-31T09:49:45.482Z,929.63
2018-03-31T09:50:45.480Z,929.61
2018-03-31T09:51:45.474Z,929.61
2018-03-31T09:52:45.475Z,929.62
2018-03-31T09:53:45.472Z,929.63
2018-03-31T09:54:45.457Z,929.64
2018-03-31T09:55:45.464Z,929.66
2018-03-31T09:56:45.472Z,929.69
2018-03-31T09:57:45.446Z,929.69
2018-03-31T09:58:45.459Z,929.66
2018-03-31T09:59:45.457Z,929.68
2018-03-31T10:00:45.458Z,929.67
2018-03-31T10:01:45.459Z,929.67
2018-03-31T10:02:45.453Z,929.68
2018-03-31T10:03:45.443Z,929.62
2018-03-31T10:04:45.438Z,929.66
2018-03-31T10:05:45.423Z,929.68
2018-03-31T10:06:45.411Z,929.69
2018-03-31T10:07:45.416Z,929.67
2018-03-31T10:08:45.426Z,929.68
2018-03-31T10:09:45.415Z,929.70
2018-03-31T10:10:45.420Z,929.67
2018-03-31T10:11:45.406Z,929.65
2018-03-31T10:12:45.402Z,929.65
2018-03-31T10:13:45.399Z,929.71
2018-03-31T10:14:45.401Z,929.70
2018-03-31T10:15:45.429Z,929.67
2018-03-31T10:16:45.390Z,929.71
2018-03-31T10:17:45.392Z,929.67
2018-03-31T10:18:45.384Z,929.67
2018-03-31T10:19:45.392Z,929.62
2018-03-31T10:20:45.380Z,929.63
2018-03-31T10:21:45.388Z,929.57
2018-03-31T10:22:45.390Z,929.58
2018-03-31T10:23:45.378Z,929.55
2018-03-31T10:24:45.373Z,929.57
2018-03-31T10:25:45.371Z,929.56
2018-03-31T10:26:45.378Z,929.54
2018-03-31T10:27:45.359Z,929.58
2018-03-31T10:28:45.367Z,929.55
2018-03-31T10:29:45.355Z,929.59
2018-03-31T10:30:45.350Z,929.60
2018-03-31T10:31:45.363Z,929.62
2018-03-31T10:32:46.099Z,929.62
2018-03-31T10:33:45.356Z,929.64
2018-03-31T10:34:45.354Z,929.64
2018-03-31T10:35:45.332Z,929.64
2018-03-31T10:36:45.357Z,929.60
2018-03-31T10:37:45.319Z,929.61
2018-03-31T10:38:45.336Z,929.57
2018-03-31T10:39:45.328Z,929.56
2018-03-31T10:40:45.325Z,929.55
2018-03-31T10:41:45.364Z,929.53
2018-03-31T10:42:45.317Z,929.53
2018-03-31T10:43:45.302Z,929.53
2018-03-31T10:44:45.304Z,929.55
2018-03-31T10:45:45.311Z,929.58
2018-03-31T10:46:45.319Z,929.51
2018-03-31T10:47:45.291Z,929.53
2018-03-31T10:48:45.288Z,929.50
2018-03-31T10:49:45.287Z,929.49
2018-03-31T10:50:45.286Z,929.52
2018-03-31T10:51:45.272Z,929.53
2018-03-31T10:52:45.277Z,929.52
2018-03-31T10:53:45.270Z,929.51
2018-03-31T10:54:45.262Z,929.52
2018-03-31T10:55:45.262Z,929.54
2018-03-31T10:56:45.264Z,929.52
2018-03-31T10:57:45.256Z,929.55
2018-03-31T10:58:45.294Z,929.55
2018-03-31T10:59:45.239Z,929.54
2018-03-31T11:00:45.268Z,929.52
2018-03-31T11:01:45.263Z,929.52
2018-03-31T11:02:45.238Z,929.52
2018-03-31T11:03:45.235Z,929.52
2018-03-31T11:04:45.220Z,929.46
2018-03-31T11:05:45.240Z,929.45
2018-03-31T11:06:45.212Z,929.45
2018-03-31T11:07:45.203Z,929.45
2018-03-31T11:08:45.217Z,929.47
2018-03-31T11:09:45.205Z,929.44
2018-03-31T11:10:45.190Z,929.42
2018-03-31T11:11:45.208Z,929.48
2018-03-31T11:12:45.195Z,929.50
2018-03-31T11:13:45.182Z,929.53
2018-03-31T11:14:45.195Z,929.54
2018-03-31T11:15:45.184Z,929.55
2018-03-31T11:16:45.184Z,929.55
2018-03-31T11:17:45.195Z,929.49
2018-03-31T11:18:45.197Z,929.52
2018-03-31T11:19:45.196Z,929.55
2018-03-31T11:20:45.210Z,929.54
2018-03-31T11:21:45.279Z,929.53
2018-03-31T11:22:45.210Z,929.53
2018-03-31T11:23:45.168Z,929.55
2018-03-31T11:24:45.162Z,929.53
2018-03-31T11:25:45.158Z,929.49
2018-03-31T11:26:45.228Z,929.51
2018-03-31T11:27:45.176Z,929.51
2018-03-31T11:28:45.173Z,929.47
2018-03-31T11:29:45.169Z,929.49
2018-03-31T11:30:45.240Z,929.49
2018-03-31T11:31:45.202Z,929.52
2018-03-31T11:32:45.133Z,929.51
2018-03-31T11:33:45.144Z,929.52
2018-03-31T11:34:45.136Z,929.52
2018-03-31T11:35:45.210Z,929.54
2018-03-31T11:36:45.162Z,929.59
2018-03-31T11:37:45.102Z,929.55
2018-03-31T11:38:45.104Z,929.54
2018-03-31T11:39:45.100Z,929.56
2018-03-31T11:40:45.098Z,929.63
2018-03-31T11:41:45.089Z,929.60
2018-03-31T11:42:45.245Z,929.59
2018-03-31T11:43:45.121Z,929.59
2018-03-31T11:44:45.101Z,929.60
2018-03-31T11:45:45.122Z,929.56
2018-03-31T11:46:45.081Z,929.56
2018-03-31T11:47:45.147Z,929.55
2018-03-31T11:48:45.253Z,929.55
2018-03-31T11:49:45.082Z,929.56
2018-03-31T11:50:45.116Z,929.53
2018-03-31T11:51:45.121Z,929.55
2018-03-31T11:52:45.065Z,929.55
2018-03-31T11:53:45.092Z,929.57
2018-03-31T11:54:45.065Z,929.55
2018-03-31T11:55:45.070Z,929.55
2018-03-31T11:56:45.041Z,929.58
2018-03-31T11:57:45.077Z,929.60
2018-03-31T11:58:45.081Z,929.58
2018-03-31T11:59:45.060Z,929.53
2018-03-31T12:00:45.027Z,929.58
2018-03-31T12:01:45.064Z,929.60
2018-03-31T12:02:45.032Z,929.59
2018-03-31T12:03:45.039Z,929.59
2018-03-31T12:04:44.995Z,929.62
2018-03-31T12:05:45.013Z,929.57
2018-03-31T12:06:45.121Z,929.59
2018-03-31T12:07:45.022Z,929.61
2018-03-31T12:08:45.000Z,929.59
2018-03-31T12:09:45.034Z,929.65
2018-03-31T12:10:44.984Z,929.62
2018-03-31T12:11:44.980Z,929.63
2018-03-31T12:12:44.965Z,929.67
2018-03-31T12:13:44.952Z,929.73
2018-03-31T12:14:44.971Z,929.70
2018-03-31T12:15:44.962Z,929.70
2018-03-31T12:16:44.933Z,929.69
2018-03-31T12:17:44.925Z,929.71
2018-03-31T12:18:44.912Z,929.73
2018-03-31T12:19:44.914Z,929.67
2018-03-31T12:20:44.919Z,929.71
2018-03-31T12:21:44.976Z,929.71
2018-03-31T12:22:44.979Z,929.68
2018-03-31T12:23:44.946Z,929.69
2018-03-31T12:24:44.929Z,929.65
2018-03-31T12:25:45.751Z,929.67
2018-03-31T12:26:44.937Z,929.68
2018-03-31T12:27:44.910Z,929.60
2018-03-31T12:28:44.890Z,929.64
2018-03-31T12:29:44.879Z,929.62
2018-03-31T12:30:44.985Z,929.62
2018-03-31T12:31:44.864Z,929.61
2018-03-31T12:32:44.858Z,929.59
2018-03-31T12:33:44.935Z,929.63
2018-03-31T12:34:44.869Z,929.58
2018-03-31T12:35:44.892Z,929.60
2018-03-31T12:36:44.876Z,929.58
2018-03-31T12:37:44.895Z,929.59
2018-03-31T12:38:44.847Z,929.58
2018-03-31T12:39:44.831Z,929.58
2018-03-31T12:40:44.827Z,929.59
2018-03-31T12:41:44.899Z,929.58
2018-03-31T12:42:44.844Z,929.54
2018-03-31T12:43:44.868Z,929.55
2018-03-31T12:44:44.918Z,929.54
2018-03-31T12:45:44.804Z,929.53
2018-03-31T12:46:44.805Z,929.47
2018-03-31T12:47:44.834Z,929.51
2018-03-31T12:48:44.816Z,929.52
2018-03-31T12:49:44.814Z,929.50
2018-03-31T12:50:44.799Z,929.49
2018-03-31T12:51:44.857Z,929.46
2018-03-31T12:52:44.851Z,929.42
2018-03-31T12:53:44.809Z,929.43
2018-03-31T12:54:44.758Z,929.41
2018-03-31T12:55:44.748Z,929.40
2018-03-31T12:56:44.749Z,929.38
2018-03-31T12:57:44.740Z,929.38
2018-03-31T12:58:44.737Z,929.43
2018-03-31T12:59:44.735Z,929.41